Time;durP1;ratioP1;P1;durP2;ratioP2;P2;SDS_P1;SDS_P2;PMS_P1;PMS_P2;Temp;Humidity;BMP_temperature;BMP_pressure;BME280_temperature;BME280_humidity;BME280_pressure;Samples;Min_cycle;Max_cycle;Signal;HPM_P1;HPM_P2
2021/05/15 00:01:08;;;;;;;2.60;2.40;;;13.60;99.90;;;;;;5075325;28;20844;-79
2021/05/15 00:03:35;;;;;;;2.93;2.73;;;13.60;99.90;;;;;;5077544;28;20496;-77
2021/05/15 00:06:02;;;;;;;3.13;2.83;;;13.50;99.90;;;;;;5072690;28;20541;-77
2021/05/15 00:08:29;;;;;;;3.10;2.90;;;13.50;99.90;;;;;;5068985;28;20493;-78
2021/05/15 00:10:55;;;;;;;3.00;2.80;;;13.40;99.90;;;;;;5080700;28;20453;-78
2021/05/15 00:13:23;;;;;;;5.27;3.50;;;13.40;99.90;;;;;;5077217;28;20457;-77
2021/05/15 00:15:50;;;;;;;3.43;3.13;;;13.40;99.90;;;;;;5079204;28;20928;-78
2021/05/15 00:18:18;;;;;;;3.70;3.40;;;13.40;99.90;;;;;;5073634;28;20451;-78
2021/05/15 00:20:45;;;;;;;3.60;3.30;;;13.30;99.90;;;;;;5075105;28;20478;-78
2021/05/15 00:23:11;;;;;;;3.10;2.90;;;13.30;99.90;;;;;;5081952;28;20461;-78
2021/05/15 00:25:37;;;;;;;3.73;3.43;;;13.20;99.90;;;;;;5078717;28;20469;-77
2021/05/15 00:28:04;;;;;;;3.13;2.93;;;13.20;99.90;;;;;;5071676;28;20676;-77
2021/05/15 00:30:31;;;;;;;4.00;3.10;;;13.10;99.90;;;;;;5074351;28;20474;-78
2021/05/15 00:32:57;;;;;;;3.20;2.90;;;13.00;99.90;;;;;;5075105;28;20509;-77
2021/05/15 00:35:24;;;;;;;3.50;3.20;;;13.00;99.90;;;;;;5075180;28;20446;-78
2021/05/15 00:37:51;;;;;;;3.50;3.20;;;13.00;99.90;;;;;;5075836;28;20461;-78
2021/05/15 00:40:18;;;;;;;3.93;3.50;;;13.00;99.90;;;;;;5074936;28;20459;-77
2021/05/15 00:42:46;;;;;;;4.23;3.90;;;13.00;99.90;;;;;;5072619;28;20458;-78
2021/05/15 00:45:16;;;;;;;4.73;4.00;;;12.90;99.90;;;;;;5074288;28;20455;-79
2021/05/15 00:47:42;;;;;;;4.57;4.13;;;12.90;99.90;;;;;;5074241;28;21015;-78
2021/05/15 00:50:10;;;;;;;4.10;3.80;;;12.90;99.90;;;;;;5063441;28;20490;-79
2021/05/15 00:52:38;;;;;;;4.47;4.17;;;12.90;99.90;;;;;;5074645;28;20461;-77
2021/05/15 00:55:08;;;;;;;5.87;3.90;;;12.90;99.90;;;;;;5077795;28;20455;-78
2021/05/15 00:57:36;;;;;;;5.20;4.40;;;12.90;99.90;;;;;;5076689;28;20539;-78
2021/05/15 01:00:03;;;;;;;4.90;4.50;;;12.90;99.90;;;;;;5083561;28;20884;-77
2021/05/15 01:02:29;;;;;;;5.60;4.33;;;13.00;99.90;;;;;;5076009;28;20540;-77
2021/05/15 01:04:56;;;;;;;7.43;3.90;;;13.00;99.90;;;;;;5075506;28;20493;-78
2021/05/15 01:07:23;;;;;;;3.60;3.30;;;13.00;99.90;;;;;;5072075;28;20866;-77
2021/05/15 01:09:50;;;;;;;3.70;3.20;;;12.90;99.90;;;;;;5073504;28;20520;-79
2021/05/15 01:12:16;;;;;;;4.93;3.90;;;12.90;99.90;;;;;;5072754;28;20547;-77
2021/05/15 01:14:42;;;;;;;4.70;4.30;;;12.90;99.90;;;;;;5075714;28;20463;-79
2021/05/15 01:17:10;;;;;;;5.40;4.93;;;12.90;99.90;;;;;;5077147;28;20482;-78
2021/05/15 01:19:37;;;;;;;5.13;4.73;;;12.90;99.90;;;;;;5067806;28;20452;-78
2021/05/15 01:22:06;;;;;;;5.37;4.90;;;12.80;99.90;;;;;;5076167;28;20508;-78
2021/05/15 01:24:33;;;;;;;5.03;4.43;;;12.80;99.90;;;;;;5074094;28;20959;-78
2021/05/15 01:27:00;;;;;;;5.30;4.80;;;12.80;99.90;;;;;;5074992;28;20866;-78
2021/05/15 01:29:27;;;;;;;4.53;4.23;;;12.80;99.90;;;;;;5071221;28;20926;-77
2021/05/15 01:31:54;;;;;;;5.27;4.77;;;12.80;99.90;;;;;;5073924;28;21010;-77
2021/05/15 01:34:20;;;;;;;10.23;4.57;;;12.80;99.90;;;;;;5075195;28;20520;-78
2021/05/15 01:36:47;;;;;;;5.30;4.80;;;12.80;99.90;;;;;;5072538;28;20455;-77
2021/05/15 01:39:16;;;;;;;4.57;4.27;;;12.80;99.90;;;;;;5077369;28;20476;-77
2021/05/15 01:41:43;;;;;;;6.87;5.00;;;12.70;99.90;;;;;;5079543;28;20877;-78
2021/05/15 01:44:09;;;;;;;6.03;5.43;;;12.80;99.90;;;;;;5073790;28;20489;-77
2021/05/15 01:46:36;;;;;;;7.03;4.73;;;12.80;99.90;;;;;;5080162;28;20468;-76
2021/05/15 01:49:03;;;;;;;5.37;4.50;;;12.80;99.90;;;;;;5076360;28;20475;-78
2021/05/15 01:51:29;;;;;;;5.00;4.10;;;12.80;99.90;;;;;;5075577;28;20455;-78
2021/05/15 01:53:56;;;;;;;5.30;4.87;;;12.80;99.90;;;;;;5069454;28;20463;-78
2021/05/15 01:56:25;;;;;;;8.33;4.50;;;12.80;99.90;;;;;;5068296;28;20459;-77
2021/05/15 01:58:52;;;;;;;7.57;5.13;;;12.80;99.90;;;;;;5072046;28;20504;-77
2021/05/15 02:01:20;;;;;;;5.83;4.90;;;12.80;99.90;;;;;;5073786;28;20468;-78
2021/05/15 02:03:47;;;;;;;5.00;4.57;;;12.80;99.90;;;;;;5078531;28;20808;-78
2021/05/15 02:06:13;;;;;;;6.28;5.00;;;12.80;99.90;;;;;;5070719;28;20490;-78
2021/05/15 02:08:42;;;;;;;6.03;5.17;;;12.80;99.90;;;;;;5067072;28;20224;-77
2021/05/15 02:11:09;;;;;;;6.37;5.77;;;12.80;99.90;;;;;;5069769;28;20455;-77
2021/05/15 02:13:36;;;;;;;6.33;5.50;;;12.90;99.90;;;;;;5072744;28;20463;-78
2021/05/15 02:16:04;;;;;;;4.90;4.43;;;12.90;99.90;;;;;;5075066;28;20484;-78
2021/05/15 02:18:30;;;;;;;6.20;5.67;;;12.90;99.90;;;;;;5074404;28;20512;-78
2021/05/15 02:20:56;;;;;;;8.10;6.43;;;12.90;99.90;;;;;;5073877;28;20485;-77
2021/05/15 02:23:24;;;;;;;6.50;5.90;;;12.90;99.90;;;;;;5075894;28;20946;-78
2021/05/15 02:25:53;;;;;;;7.67;6.27;;;13.00;99.90;;;;;;5075751;28;20543;-78
2021/05/15 02:28:20;;;;;;;8.40;6.00;;;13.00;99.90;;;;;;5073954;28;20456;-77
2021/05/15 02:30:48;;;;;;;6.63;6.00;;;13.00;99.90;;;;;;5073274;28;20519;-77
2021/05/15 02:33:15;;;;;;;7.57;5.10;;;13.00;99.90;;;;;;5071018;28;20475;-77
2021/05/15 02:35:42;;;;;;;5.70;4.73;;;13.00;99.90;;;;;;5071637;28;20446;-77
2021/05/15 02:38:10;;;;;;;6.80;5.07;;;13.10;99.90;;;;;;5071371;28;20503;-76
2021/05/15 02:40:37;;;;;;;5.10;4.70;;;13.10;99.90;;;;;;5073483;28;20454;-78
2021/05/15 02:43:03;;;;;;;4.80;4.40;;;13.10;99.90;;;;;;5078758;28;20451;-77
2021/05/15 02:45:30;;;;;;;5.00;4.53;;;13.10;99.90;;;;;;5069742;28;20462;-76
2021/05/15 02:47:58;;;;;;;5.80;5.20;;;13.10;99.90;;;;;;5066825;28;20496;-76
2021/05/15 02:50:25;;;;;;;4.87;4.47;;;13.10;99.90;;;;;;5075342;28;20469;-77
2021/05/15 02:52:53;;;;;;;5.60;5.03;;;13.10;99.90;;;;;;5078076;28;20474;-77
2021/05/15 02:55:21;;;;;;;5.10;4.60;;;13.10;99.90;;;;;;5074706;28;20994;-78
2021/05/15 02:57:50;;;;;;;4.73;4.13;;;13.10;99.90;;;;;;5069875;28;20541;-77
2021/05/15 03:00:19;;;;;;;5.03;4.63;;;13.10;99.90;;;;;;5072607;28;20958;-77
2021/05/15 03:02:46;;;;;;;4.57;4.17;;;13.10;99.90;;;;;;5073827;28;20498;-78
2021/05/15 03:05:16;;;;;;;3.90;3.70;;;13.10;99.90;;;;;;5073398;28;20454;-78
2021/05/15 03:07:42;;;;;;;4.03;3.70;;;13.10;99.90;;;;;;5073065;28;20453;-77
2021/05/15 03:10:10;;;;;;;4.33;3.93;;;13.10;99.90;;;;;;5077359;28;20518;-78
2021/05/15 03:12:37;;;;;;;4.10;3.70;;;13.10;99.90;;;;;;5076391;28;20449;-77
2021/05/15 03:15:06;;;;;;;5.27;3.80;;;13.10;99.90;;;;;;5074865;28;20823;-77
2021/05/15 03:17:32;;;;;;;3.70;3.40;;;13.20;99.90;;;;;;5074060;28;20494;-78
2021/05/15 03:19:59;;;;;;;4.63;4.10;;;13.10;99.90;;;;;;5073880;28;20510;-78
2021/05/15 03:22:26;;;;;;;3.77;3.10;;;13.10;99.90;;;;;;5067525;28;20549;-76
2021/05/15 03:24:53;;;;;;;3.90;3.60;;;13.10;99.90;;;;;;5071894;28;21065;-78
2021/05/15 03:27:19;;;;;;;3.40;3.20;;;13.00;99.90;;;;;;5068977;28;20786;-77
2021/05/15 03:29:46;;;;;;;3.13;2.93;;;13.00;99.90;;;;;;5073036;28;20512;-77
2021/05/15 03:32:13;;;;;;;2.93;2.73;;;13.00;99.90;;;;;;5074844;28;20459;-77
2021/05/15 03:34:39;;;;;;;2.92;2.72;;;13.00;99.90;;;;;;5072523;28;20538;-77
2021/05/15 03:37:06;;;;;;;2.87;2.67;;;13.00;99.90;;;;;;5071159;28;20652;-76
2021/05/15 03:39:33;;;;;;;3.43;3.07;;;13.00;99.90;;;;;;5065982;28;20450;-78
2021/05/15 03:41:59;;;;;;;4.13;3.40;;;13.10;99.90;;;;;;5075192;28;20451;-76
2021/05/15 03:44:26;;;;;;;2.83;2.63;;;13.10;99.90;;;;;;5072306;28;20466;-78
2021/05/15 03:46:52;;;;;;;5.30;4.70;;;13.10;99.90;;;;;;5077058;28;20946;-77
2021/05/15 03:49:19;;;;;;;3.63;3.43;;;13.10;99.90;;;;;;5074584;28;20487;-78
2021/05/15 03:51:45;;;;;;;3.43;3.23;;;13.10;99.90;;;;;;5072912;28;20528;-78
2021/05/15 03:54:12;;;;;;;3.20;2.90;;;13.10;99.90;;;;;;5073941;28;20473;-77
2021/05/15 03:56:39;;;;;;;3.30;3.10;;;13.10;99.90;;;;;;5072158;28;20454;-78
2021/05/15 03:59:06;;;;;;;2.87;2.67;;;13.10;99.90;;;;;;5071112;28;20462;-78
2021/05/15 04:01:32;;;;;;;4.20;2.90;;;13.10;99.90;;;;;;5073952;28;20538;-77
2021/05/15 04:03:58;;;;;;;3.23;2.90;;;13.10;99.90;;;;;;5068679;28;20466;-77
2021/05/15 04:06:25;;;;;;;3.73;3.43;;;13.10;99.90;;;;;;5073178;28;20535;-77
2021/05/15 04:08:51;;;;;;;3.77;3.23;;;13.10;99.90;;;;;;5076957;28;20465;-76
2021/05/15 04:11:18;;;;;;;6.17;3.90;;;13.20;99.90;;;;;;5077342;28;20452;-76
2021/05/15 04:13:49;;;;;;;3.23;2.93;;;13.10;99.90;;;;;;5076267;28;20537;-77
2021/05/15 04:16:19;;;;;;;3.40;3.10;;;13.20;99.90;;;;;;5074685;28;20486;-78
2021/05/15 04:18:45;;;;;;;4.47;3.43;;;13.20;99.90;;;;;;5079385;28;20463;-76
2021/05/15 04:21:12;;;;;;;3.60;3.30;;;13.20;99.90;;;;;;5075499;28;20501;-76
2021/05/15 04:23:38;;;;;;;3.27;3.07;;;13.20;99.90;;;;;;5076613;28;20461;-76
2021/05/15 04:26:06;;;;;;;8.13;3.67;;;13.20;99.90;;;;;;5072479;28;20854;-77
2021/05/15 04:28:33;;;;;;;3.50;3.20;;;13.20;99.90;;;;;;5074348;28;20812;-77
2021/05/15 04:31:00;;;;;;;12.97;3.67;;;13.20;99.90;;;;;;5076004;28;21133;-77
2021/05/15 04:33:26;;;;;;;4.90;3.90;;;13.20;99.90;;;;;;5076138;28;20673;-78
2021/05/15 04:35:55;;;;;;;4.87;4.47;;;13.20;99.90;;;;;;5075196;28;20473;-78
2021/05/15 04:38:21;;;;;;;4.70;4.33;;;13.20;99.90;;;;;;5076040;28;20458;-78
2021/05/15 04:40:48;;;;;;;4.67;4.13;;;13.30;99.90;;;;;;5074596;28;20828;-78
2021/05/15 04:43:15;;;;;;;5.73;4.40;;;13.30;99.90;;;;;;5082257;28;20466;-78
2021/05/15 04:45:41;;;;;;;4.50;4.10;;;13.30;99.90;;;;;;5075842;28;21065;-79
2021/05/15 04:48:09;;;;;;;4.90;4.50;;;13.30;99.90;;;;;;5078044;28;20760;-76
2021/05/15 04:50:35;;;;;;;5.10;4.23;;;13.40;99.90;;;;;;5077443;28;20992;-76
2021/05/15 04:53:02;;;;;;;5.43;4.93;;;13.40;99.90;;;;;;5072479;28;20566;-78
2021/05/15 04:55:28;;;;;;;5.17;4.67;;;13.40;99.90;;;;;;5073999;28;20481;-76
2021/05/15 04:57:57;;;;;;;5.43;4.93;;;13.50;99.90;;;;;;5068583;28;20451;-77
2021/05/15 05:00:24;;;;;;;4.70;4.20;;;13.50;99.90;;;;;;5079072;28;20477;-77
2021/05/15 05:02:51;;;;;;;6.33;4.80;;;13.50;99.90;;;;;;5079129;28;20484;-78
2021/05/15 05:05:19;;;;;;;4.93;4.53;;;13.50;99.90;;;;;;5071692;28;20523;-78
2021/05/15 05:07:45;;;;;;;4.53;4.10;;;13.60;99.90;;;;;;5073941;28;20487;-78
2021/05/15 05:10:12;;;;;;;5.40;4.90;;;13.60;99.90;;;;;;5077794;28;20993;-77
2021/05/15 05:12:38;;;;;;;5.20;4.70;;;13.60;99.90;;;;;;5074880;28;20460;-78
2021/05/15 05:15:06;;;;;;;4.83;4.23;;;13.60;99.90;;;;;;5079297;28;20462;-78
2021/05/15 05:17:32;;;;;;;7.43;5.07;;;13.60;99.90;;;;;;5072422;28;20577;-78
2021/05/15 05:19:59;;;;;;;5.67;4.53;;;13.60;99.90;;;;;;5073262;28;20549;-77
2021/05/15 05:22:26;;;;;;;5.43;5.03;;;13.50;99.90;;;;;;5074028;28;20464;-77
2021/05/15 05:24:52;;;;;;;5.83;5.27;;;13.60;99.90;;;;;;5077676;28;20463;-77
2021/05/15 05:27:22;;;;;;;5.90;5.33;;;13.60;99.90;;;;;;5076405;28;21014;-76
2021/05/15 05:29:48;;;;;;;5.47;5.00;;;13.60;99.90;;;;;;5075585;28;20485;-78
2021/05/15 05:32:15;;;;;;;6.23;5.63;;;13.60;99.90;;;;;;5076269;28;20494;-78
2021/05/15 05:34:43;;;;;;;6.83;6.07;;;13.60;99.90;;;;;;5072016;28;20483;-75
2021/05/15 05:37:09;;;;;;;6.10;5.17;;;13.60;99.90;;;;;;5067330;28;20477;-75
2021/05/15 05:39:37;;;;;;;7.20;6.50;;;13.60;99.90;;;;;;5077182;28;21254;-77
2021/05/15 05:42:04;;;;;;;6.27;5.77;;;13.60;99.90;;;;;;5073980;28;20458;-75
2021/05/15 05:44:30;;;;;;;6.93;6.10;;;13.60;99.90;;;;;;5075480;28;20505;-75
2021/05/15 05:46:57;;;;;;;7.03;5.97;;;13.60;99.90;;;;;;5069945;28;20458;-76
2021/05/15 05:49:24;;;;;;;4.87;4.47;;;13.60;99.90;;;;;;5074508;28;20469;-76
2021/05/15 05:51:50;;;;;;;6.13;5.53;;;13.60;99.90;;;;;;5076169;28;20462;-76
2021/05/15 05:54:17;;;;;;;5.87;5.27;;;13.50;99.90;;;;;;5071523;28;20620;-79
2021/05/15 05:56:44;;;;;;;5.37;4.87;;;13.50;99.90;;;;;;5075149;28;20510;-77
2021/05/15 05:59:11;;;;;;;6.30;5.70;;;13.50;99.90;;;;;;5074739;28;20470;-78
2021/05/15 06:01:38;;;;;;;6.00;5.40;;;13.60;99.90;;;;;;5074729;28;20462;-77
2021/05/15 06:04:05;;;;;;;6.73;5.43;;;13.60;99.90;;;;;;5072889;28;20479;-77
2021/05/15 06:06:31;;;;;;;6.83;6.03;;;13.60;99.90;;;;;;5072160;28;20863;-76
2021/05/15 06:08:58;;;;;;;6.03;5.50;;;13.60;99.90;;;;;;5071793;28;20829;-80
2021/05/15 06:11:25;;;;;;;6.20;5.20;;;13.60;99.90;;;;;;5072147;28;20551;-78
2021/05/15 06:13:52;;;;;;;5.27;4.77;;;13.60;99.90;;;;;;5075007;28;20466;-77
2021/05/15 06:16:18;;;;;;;5.97;5.37;;;13.70;99.90;;;;;;5071114;28;20500;-77
2021/05/15 06:18:45;;;;;;;5.20;4.80;;;13.70;99.90;;;;;;5069429;28;20457;-76
2021/05/15 06:21:11;;;;;;;5.30;4.87;;;13.80;99.90;;;;;;5065263;28;21310;-77
2021/05/15 06:23:38;;;;;;;5.63;5.03;;;13.80;99.90;;;;;;5074189;28;20840;-78
2021/05/15 06:26:08;;;;;;;6.90;6.20;;;13.90;99.90;;;;;;5074689;28;20528;-76
2021/05/15 06:28:35;;;;;;;7.30;6.33;;;13.90;99.90;;;;;;5068106;28;20468;-77
2021/05/15 06:31:03;;;;;;;8.63;6.33;;;13.90;99.90;;;;;;5070465;28;20979;-77
2021/05/15 06:33:30;;;;;;;6.53;5.80;;;13.90;99.90;;;;;;5070740;28;20458;-77
2021/05/15 06:35:56;;;;;;;5.47;4.97;;;14.00;99.90;;;;;;5074112;28;20458;-77
2021/05/15 06:38:23;;;;;;;5.67;5.17;;;14.00;99.90;;;;;;5073832;28;20542;-78
2021/05/15 06:40:50;;;;;;;4.73;4.33;;;14.00;99.90;;;;;;5076416;28;20456;-78
2021/05/15 06:43:17;;;;;;;4.77;4.37;;;14.00;99.90;;;;;;5071460;28;20450;-77
2021/05/15 06:45:43;;;;;;;5.10;4.70;;;14.00;99.90;;;;;;5071413;28;20459;-77
2021/05/15 06:48:11;;;;;;;6.40;5.80;;;14.00;99.90;;;;;;5075341;28;20462;-77
2021/05/15 06:50:38;;;;;;;6.20;5.60;;;14.00;99.90;;;;;;5074111;28;20489;-78
2021/05/15 06:53:04;;;;;;;6.90;5.73;;;13.90;99.90;;;;;;5065566;28;20547;-78
2021/05/15 06:55:30;;;;;;;6.37;5.77;;;13.90;99.90;;;;;;5076776;28;20470;-78
2021/05/15 06:57:57;;;;;;;7.60;6.77;;;13.90;99.90;;;;;;5071481;28;20451;-77
2021/05/15 07:00:24;;;;;;;9.27;8.27;;;13.90;99.90;;;;;;5077047;28;20553;-76
2021/05/15 07:02:50;;;;;;;7.93;7.13;;;13.90;99.90;;;;;;5070856;28;20483;-77
2021/05/15 07:05:18;;;;;;;7.77;6.97;;;13.90;99.90;;;;;;5081270;28;20447;-77
2021/05/15 07:07:44;;;;;;;8.03;7.27;;;13.90;99.90;;;;;;5068897;28;20459;-77
2021/05/15 07:10:12;;;;;;;8.67;7.20;;;13.90;99.90;;;;;;5076742;28;20479;-77
2021/05/15 07:12:38;;;;;;;8.03;7.07;;;14.00;99.90;;;;;;5068592;28;20567;-78
2021/05/15 07:15:06;;;;;;;7.70;7.00;;;14.00;99.90;;;;;;5071079;28;20467;-77
2021/05/15 07:17:32;;;;;;;9.00;7.83;;;14.00;99.90;;;;;;5069201;28;21233;-78
2021/05/15 07:19:59;;;;;;;7.63;6.73;;;14.10;99.90;;;;;;5070387;28;20476;-77
2021/05/15 07:22:27;;;;;;;8.03;7.23;;;14.10;99.90;;;;;;5067775;28;20557;-77
2021/05/15 07:24:54;;;;;;;7.47;6.77;;;14.10;99.90;;;;;;5075275;28;20548;-77
2021/05/15 07:27:22;;;;;;;9.93;8.93;;;14.20;99.90;;;;;;5069277;28;20560;-78
2021/05/15 07:29:49;;;;;;;9.13;7.53;;;14.20;99.90;;;;;;5072434;28;20494;-76
2021/05/15 07:32:16;;;;;;;9.40;8.47;;;14.30;99.90;;;;;;5072682;28;20486;-76
2021/05/15 07:34:42;;;;;;;9.43;8.50;;;14.30;99.90;;;;;;5073135;28;20463;-77
2021/05/15 07:37:09;;;;;;;9.20;8.20;;;14.30;99.90;;;;;;5071602;28;20542;-77
2021/05/15 07:39:37;;;;;;;9.87;8.87;;;14.40;99.90;;;;;;5076883;28;20810;-78
2021/05/15 07:42:04;;;;;;;8.73;7.53;;;14.50;99.90;;;;;;5065904;28;20453;-77
2021/05/15 07:44:30;;;;;;;9.70;8.50;;;14.60;99.90;;;;;;5078011;28;20468;-76
2021/05/15 07:46:57;;;;;;;7.13;6.43;;;14.60;99.90;;;;;;5078520;28;20498;-78
2021/05/15 07:49:23;;;;;;;7.50;6.80;;;14.70;99.90;;;;;;5072098;28;20589;-78
2021/05/15 07:51:50;;;;;;;9.77;8.00;;;14.70;99.90;;;;;;5076623;28;20491;-76
2021/05/15 07:54:16;;;;;;;8.03;7.23;;;14.70;99.90;;;;;;5079365;28;20546;-78
2021/05/15 07:56:44;;;;;;;7.93;7.07;;;14.80;99.90;;;;;;5067564;28;20460;-79
2021/05/15 07:59:10;;;;;;;8.60;7.70;;;14.90;99.90;;;;;;5072998;28;20488;-77
2021/05/15 08:01:36;;;;;;;8.33;7.27;;;15.00;99.90;;;;;;5073952;28;20457;-78
2021/05/15 08:04:03;;;;;;;10.83;7.00;;;15.00;99.90;;;;;;5066820;28;20452;-78
2021/05/15 08:06:30;;;;;;;8.17;7.27;;;15.10;99.90;;;;;;5064837;28;20551;-78
2021/05/15 08:08:56;;;;;;;7.70;7.00;;;15.10;99.90;;;;;;5071411;28;20665;-78
2021/05/15 08:11:22;;;;;;;7.90;7.10;;;15.10;99.90;;;;;;5070911;28;20472;-78
2021/05/15 08:13:50;;;;;;;7.93;7.23;;;15.10;99.90;;;;;;5069422;28;20990;-79
2021/05/15 08:16:17;;;;;;;9.77;6.90;;;15.10;99.90;;;;;;5074639;28;20656;-79
2021/05/15 08:18:43;;;;;;;7.80;7.00;;;15.20;99.90;;;;;;5065946;28;20505;-77
2021/05/15 08:21:10;;;;;;;11.07;7.50;;;15.30;99.90;;;;;;5070199;28;20488;-78
2021/05/15 08:23:38;;;;;;;8.30;7.50;;;15.40;99.90;;;;;;5067957;28;20456;-78
2021/05/15 08:26:06;;;;;;;9.60;7.40;;;15.50;99.90;;;;;;5071146;28;20471;-80
2021/05/15 08:28:33;;;;;;;8.53;7.73;;;15.50;99.90;;;;;;5069147;28;20481;-82
2021/05/15 08:31:00;;;;;;;7.50;6.60;;;15.60;99.90;;;;;;5068100;28;20496;-80
2021/05/15 08:33:26;;;;;;;9.87;7.40;;;15.60;99.90;;;;;;5067971;28;21080;-82
2021/05/15 08:35:53;;;;;;;7.93;6.77;;;15.80;99.90;;;;;;5070560;28;20474;-79
2021/05/15 08:38:19;;;;;;;11.47;7.30;;;15.90;99.90;;;;;;5070584;28;20454;-80
2021/05/15 08:40:46;;;;;;;7.60;6.90;;;15.90;99.90;;;;;;5065938;28;20466;-80
2021/05/15 08:43:14;;;;;;;9.10;5.63;;;16.00;99.90;;;;;;5067677;28;20466;-80
2021/05/15 08:45:42;;;;;;;8.07;6.53;;;16.10;99.90;;;;;;5068455;28;20454;-79
2021/05/15 08:48:12;;;;;;;6.60;6.00;;;16.10;99.90;;;;;;5069948;28;20471;-78
2021/05/15 08:50:39;;;;;;;6.33;5.73;;;16.20;99.90;;;;;;5072814;28;20955;-79
2021/05/15 08:53:06;;;;;;;5.90;5.33;;;16.20;99.90;;;;;;5072290;28;20996;-80
2021/05/15 08:55:34;;;;;;;7.20;5.97;;;16.30;99.90;;;;;;5069012;28;20457;-79
2021/05/15 08:58:01;;;;;;;5.40;4.90;;;16.40;99.90;;;;;;5065949;28;20456;-79
2021/05/15 09:00:31;;;;;;;6.13;4.97;;;16.50;99.90;;;;;;5068280;28;21074;-79
2021/05/15 09:03:00;;;;;;;5.30;4.80;;;16.60;99.90;;;;;;5068633;28;20519;-80
2021/05/15 09:05:29;;;;;;;5.77;5.07;;;16.80;99.90;;;;;;5066437;28;20526;-79
2021/05/15 09:07:57;;;;;;;5.87;5.37;;;16.90;99.90;;;;;;5065789;28;20470;-79
2021/05/15 09:10:25;;;;;;;5.57;4.97;;;17.00;99.90;;;;;;5067540;28;20494;-78
2021/05/15 09:12:52;;;;;;;5.63;4.73;;;17.00;99.90;;;;;;5068026;28;20535;-79
2021/05/15 09:15:19;;;;;;;5.60;5.10;;;17.00;99.90;;;;;;5069337;28;20455;-78
2021/05/15 09:17:50;;;;;;;6.27;5.67;;;17.10;99.80;;;;;;5066932;28;20481;-79
2021/05/15 09:20:24;;;;;;;5.93;5.33;;;17.00;99.90;;;;;;5067231;28;20481;-79
2021/05/15 09:22:52;;;;;;;6.93;6.20;;;17.00;99.90;;;;;;5068049;28;20964;-79
2021/05/15 09:25:18;;;;;;;5.77;5.13;;;17.00;99.90;;;;;;5067653;28;21050;-81
2021/05/15 09:27:45;;;;;;;11.43;5.57;;;17.10;99.80;;;;;;5064686;28;20973;-80
2021/05/15 09:30:13;;;;;;;6.77;6.07;;;17.20;99.90;;;;;;5068437;28;20490;-79
2021/05/15 09:32:40;;;;;;;5.73;5.13;;;17.10;99.90;;;;;;5076961;28;20553;-79
2021/05/15 09:35:08;;;;;;;8.17;6.17;;;17.10;99.90;;;;;;5074530;28;20454;-80
2021/05/15 09:37:36;;;;;;;6.07;5.53;;;17.00;99.60;;;;;;5071051;28;20458;-80
2021/05/15 09:40:14;;;;;;;6.50;5.90;;;16.90;99.80;;;;;;5069925;28;20458;-79
2021/05/15 09:42:49;;;;;;;7.70;6.90;;;16.90;99.90;;;;;;5066849;28;20549;-80
2021/05/15 09:45:23;;;;;;;6.60;5.30;;;16.90;99.90;;;;;;5067970;28;20452;-79
2021/05/15 09:47:54;;;;;;;7.77;6.20;;;16.90;99.80;;;;;;5073326;28;20462;-79
2021/05/15 09:50:22;;;;;;;9.33;5.60;;;16.80;99.90;;;;;;5067645;28;20489;-77
2021/05/15 09:52:49;;;;;;;7.00;4.60;;;16.60;99.90;;;;;;5067365;28;21407;-76
2021/05/15 09:55:17;;;;;;;5.50;4.20;;;16.30;99.90;;;;;;5066668;28;20545;-78
2021/05/15 09:57:54;;;;;;;4.50;3.90;;;16.20;99.90;;;;;;5069076;28;20466;-76
2021/05/15 10:00:20;;;;;;;6.83;3.63;;;16.30;99.90;;;;;;5066450;28;20461;-76
2021/05/15 10:02:54;;;;;;;6.80;3.33;;;16.30;99.90;;;;;;5060385;28;20457;-78
2021/05/15 10:05:21;;;;;;;3.60;3.30;;;16.30;99.90;;;;;;5066736;28;20857;-77
2021/05/15 10:07:48;;;;;;;3.10;2.53;;;16.40;99.90;;;;;;5066913;28;20462;-78
2021/05/15 10:10:15;;;;;;;3.70;3.40;;;16.50;99.90;;;;;;5074129;28;20478;-79
2021/05/15 10:12:42;;;;;;;4.03;3.63;;;16.60;99.90;;;;;;5064510;28;20459;-78
2021/05/15 10:15:09;;;;;;;5.47;4.90;;;16.60;99.90;;;;;;5063684;28;20841;-78
2021/05/15 10:17:36;;;;;;;5.63;5.10;;;16.60;99.90;;;;;;5066730;28;20513;-77
2021/05/15 10:20:08;;;;;;;6.90;4.00;;;16.60;99.90;;;;;;5072321;28;20517;-77
2021/05/15 10:22:38;;;;;;;3.80;3.50;;;16.50;99.90;;;;;;5063375;28;20503;-79
2021/05/15 10:25:10;;;;;;;3.40;3.10;;;16.40;99.90;;;;;;5066221;28;20458;-77
2021/05/15 10:27:38;;;;;;;3.63;3.33;;;16.40;99.90;;;;;;5067986;28;20464;-78
2021/05/15 10:30:21;;;;;;;6.03;3.47;;;16.40;99.90;;;;;;5064083;28;20518;-78
2021/05/15 10:32:55;;;;;;;5.20;3.40;;;16.30;99.90;;;;;;5061596;28;21335;-77
2021/05/15 10:35:30;;;;;;;4.60;3.80;;;16.40;99.90;;;;;;5067399;28;20463;-78
2021/05/15 10:38:08;;;;;;;6.27;4.77;;;16.30;99.90;;;;;;5063515;28;20475;-78
2021/05/15 10:40:46;;;;;;;6.10;4.90;;;16.40;99.90;;;;;;5061066;28;20458;-78
2021/05/15 10:43:13;;;;;;;7.87;5.10;;;16.40;99.90;;;;;;5065004;28;20464;-78
2021/05/15 10:45:41;;;;;;;5.13;4.30;;;16.40;99.90;;;;;;5069634;28;20549;-80
2021/05/15 10:48:22;;;;;;;6.10;4.83;;;16.50;99.90;;;;;;5067591;28;20544;-80
2021/05/15 10:50:51;;;;;;;8.13;4.70;;;16.60;99.90;;;;;;5072428;28;20672;-81
2021/05/15 10:53:23;;;;;;;5.20;3.73;;;16.60;99.90;;;;;;5070304;28;20458;-79
2021/05/15 10:56:11;;;;;;;4.20;3.80;;;16.60;99.90;;;;;;5068238;28;20454;-80
2021/05/15 10:58:41;;;;;;;4.20;3.63;;;16.70;99.90;;;;;;5069355;28;20458;-79
2021/05/15 11:01:12;;;;;;;4.10;3.70;;;16.70;99.90;;;;;;5067468;28;20462;-79
2021/05/15 11:03:39;;;;;;;4.57;4.10;;;16.80;99.90;;;;;;5065377;28;20966;-80
2021/05/15 11:06:17;;;;;;;6.27;4.20;;;16.90;99.90;;;;;;5066627;28;20451;-80
2021/05/15 11:08:44;;;;;;;4.43;4.03;;;17.00;99.90;;;;;;5074650;28;20570;-80
2021/05/15 11:11:12;;;;;;;4.40;3.23;;;17.00;99.90;;;;;;5069035;28;21083;-79
2021/05/15 11:13:50;;;;;;;8.47;3.37;;;17.10;99.90;;;;;;5064743;28;20464;-79
2021/05/15 11:16:17;;;;;;;3.67;3.37;;;17.20;99.90;;;;;;5064057;28;20481;-79
2021/05/15 11:18:44;;;;;;;4.10;2.93;;;17.30;99.90;;;;;;5064749;28;20464;-79
2021/05/15 11:21:10;;;;;;;5.17;3.10;;;17.30;99.90;;;;;;5079813;28;20485;-80
2021/05/15 11:23:48;;;;;;;3.43;3.00;;;17.40;99.90;;;;;;5068885;28;20457;-81
2021/05/15 11:26:19;;;;;;;3.00;2.80;;;17.40;99.70;;;;;;5071437;28;20639;-80
2021/05/15 11:28:47;;;;;;;3.30;3.00;;;17.50;99.90;;;;;;5072627;28;20572;-81
2021/05/15 11:31:17;;;;;;;3.23;2.93;;;17.60;99.90;;;;;;5061664;28;20507;-81
2021/05/15 11:33:44;;;;;;;3.60;3.30;;;17.70;99.70;;;;;;5068533;28;20542;-81
2021/05/15 11:36:11;;;;;;;3.63;2.90;;;17.80;99.60;;;;;;5078101;28;20472;-79
2021/05/15 11:38:37;;;;;;;3.27;2.70;;;17.90;98.90;;;;;;5075081;28;20454;-81
2021/05/15 11:41:05;;;;;;;4.17;2.90;;;18.00;99.10;;;;;;5069526;28;20456;-79
2021/05/15 11:43:33;;;;;;;2.80;2.60;;;18.00;99.10;;;;;;5077000;28;20954;-81
2021/05/15 11:46:01;;;;;;;3.17;2.50;;;18.10;98.70;;;;;;5084760;28;20848;-79
2021/05/15 11:48:29;;;;;;;3.00;2.70;;;18.10;98.70;;;;;;5076784;28;20460;-79
2021/05/15 11:51:00;;;;;;;2.83;2.60;;;18.20;98.70;;;;;;5076889;28;21005;-80
2021/05/15 11:53:27;;;;;;;5.30;2.50;;;18.30;98.80;;;;;;5077536;28;20988;-81
2021/05/15 11:55:53;;;;;;;3.07;2.47;;;18.40;98.40;;;;;;5076136;28;20448;-79
2021/05/15 11:58:20;;;;;;;4.67;2.67;;;18.40;97.30;;;;;;5078810;28;20450;-80
2021/05/15 12:00:47;;;;;;;6.53;2.50;;;18.50;97.40;;;;;;5072652;28;20460;-80
2021/05/15 12:03:19;;;;;;;2.80;2.60;;;18.50;97.10;;;;;;5075768;28;20464;-80
2021/05/15 12:05:46;;;;;;;2.37;2.17;;;18.50;96.90;;;;;;5070754;28;20961;-80
2021/05/15 12:08:14;;;;;;;3.40;2.90;;;18.50;97.20;;;;;;5073916;28;20603;-80
2021/05/15 12:10:41;;;;;;;3.10;2.50;;;18.50;97.40;;;;;;5075968;28;20508;-80
2021/05/15 12:13:08;;;;;;;2.83;2.63;;;18.40;97.60;;;;;;5078280;28;20509;-80
2021/05/15 12:15:38;;;;;;;9.53;2.40;;;18.40;97.70;;;;;;5082278;28;20457;-79
2021/05/15 12:18:05;;;;;;;2.07;1.80;;;18.30;97.50;;;;;;5072718;28;20809;-80
2021/05/15 12:20:33;;;;;;;2.13;2.03;;;18.20;97.30;;;;;;5070150;28;20525;-81
2021/05/15 12:23:20;;;;;;;3.33;2.17;;;18.10;97.50;;;;;;5076469;28;20465;-80
2021/05/15 12:25:58;;;;;;;3.00;2.53;;;18.10;97.60;;;;;;5071780;28;20452;-80
2021/05/15 12:28:26;;;;;;;3.83;2.63;;;18.00;98.00;;;;;;5078318;28;20459;-80
2021/05/15 12:30:53;;;;;;;4.37;2.80;;;18.00;97.70;;;;;;5072408;28;20475;-81
2021/05/15 12:33:21;;;;;;;2.83;2.57;;;18.00;97.90;;;;;;5071838;28;20825;-80
2021/05/15 12:36:02;;;;;;;2.70;2.50;;;17.90;97.90;;;;;;5074937;28;20482;-82
2021/05/15 12:38:30;;;;;;;7.60;2.70;;;17.90;98.30;;;;;;5075273;28;20474;-79
2021/05/15 12:41:07;;;;;;;2.53;2.30;;;17.80;99.00;;;;;;5076455;28;20540;-80
2021/05/15 12:43:34;;;;;;;5.30;2.47;;;17.70;99.00;;;;;;5077327;28;20940;-80
2021/05/15 12:46:08;;;;;;;2.97;2.57;;;17.60;99.20;;;;;;5072375;28;20536;-78
2021/05/15 12:48:39;;;;;;;3.70;2.30;;;17.50;99.80;;;;;;5076024;28;20881;-78